Time;durP1;ratioP1;P1;durP2;ratioP2;P2;SDS_P1;SDS_P2;PMS_P1;PMS_P2;Temp;Humidity;BMP_temperature;BMP_pressure;BME280_temperature;BME280_humidity;BME280_pressure;Samples;Min_cycle;Max_cycle;Signal;HPM_P1;HPM_P2
2021/01/11 00:01:03;;;;;;;25.70;13.50;;;2.60;89.50;;;;;;6276428;22;19996;-81
2021/01/11 00:03:28;;;;;;;26.47;14.03;;;2.60;89.40;;;;;;6249716;22;20014;-81
2021/01/11 00:05:54;;;;;;;25.27;13.30;;;2.70;89.80;;;;;;6277120;22;20008;-81
2021/01/11 00:08:19;;;;;;;23.87;13.60;;;2.60;89.70;;;;;;6249769;22;20109;-81
2021/01/11 00:10:45;;;;;;;27.83;13.50;;;2.60;88.20;;;;;;6276777;22;20482;-81
2021/01/11 00:13:11;;;;;;;31.80;13.87;;;2.60;88.60;;;;;;6249806;22;20011;-81
2021/01/11 00:15:36;;;;;;;26.47;13.50;;;2.60;89.20;;;;;;6276758;22;20043;-81
2021/01/11 00:18:02;;;;;;;25.30;13.67;;;2.60;88.10;;;;;;6276686;22;20343;-81
2021/01/11 00:20:28;;;;;;;26.80;12.90;;;2.60;88.10;;;;;;6276199;22;20023;-81
2021/01/11 00:22:53;;;;;;;28.10;14.07;;;2.60;87.60;;;;;;6276574;22;20027;-81
2021/01/11 00:25:19;;;;;;;32.97;14.03;;;2.60;88.90;;;;;;6276950;22;19999;-81
2021/01/11 00:27:44;;;;;;;26.00;12.97;;;2.60;87.60;;;;;;6249607;22;20530;-81
2021/01/11 00:30:11;;;;;;;24.93;12.43;;;2.60;89.20;;;;;;6249525;22;20015;-81
2021/01/11 00:32:38;;;;;;;25.03;12.90;;;2.60;88.00;;;;;;6276649;22;20078;-81
2021/01/11 00:35:05;;;;;;;26.73;12.77;;;2.60;87.60;;;;;;6249448;22;20004;-82
2021/01/11 00:37:30;;;;;;;26.50;12.93;;;2.50;87.50;;;;;;6276369;22;19999;-82
2021/01/11 00:39:56;;;;;;;26.67;13.33;;;2.60;87.70;;;;;;6248865;22;20075;-81
2021/01/11 00:42:21;;;;;;;27.40;13.27;;;2.60;88.10;;;;;;6276592;22;20014;-81
2021/01/11 00:44:48;;;;;;;26.70;12.50;;;2.50;87.10;;;;;;6276641;22;20397;-81
2021/01/11 00:47:14;;;;;;;28.73;13.27;;;2.60;89.20;;;;;;6276763;22;20031;-82
2021/01/11 00:49:41;;;;;;;27.37;12.93;;;2.50;87.60;;;;;;6249371;22;20315;-81
2021/01/11 00:52:07;;;;;;;26.57;13.50;;;2.60;87.40;;;;;;6276006;22;20007;-81
2021/01/11 00:54:33;;;;;;;26.10;12.07;;;2.60;87.30;;;;;;6276481;22;20019;-81
2021/01/11 00:56:59;;;;;;;30.83;13.87;;;2.50;87.40;;;;;;6276589;22;20071;-81
2021/01/11 00:59:25;;;;;;;27.87;13.93;;;2.50;87.40;;;;;;6275785;22;20031;-81
2021/01/11 01:01:52;;;;;;;31.90;14.57;;;2.50;87.80;;;;;;6276300;22;20000;-81
2021/01/11 01:04:18;;;;;;;26.60;13.73;;;2.50;87.80;;;;;;6276211;22;20003;-81
2021/01/11 01:06:44;;;;;;;26.63;13.90;;;2.50;89.10;;;;;;6276581;22;20000;-81
2021/01/11 01:09:10;;;;;;;27.80;14.53;;;2.50;87.40;;;;;;6248586;22;20034;-81
2021/01/11 01:11:42;;;;;;;28.30;14.47;;;2.50;87.80;;;;;;6276613;22;19999;-81
2021/01/11 01:14:09;;;;;;;26.93;13.97;;;2.60;87.50;;;;;;6276310;22;20053;-81
2021/01/11 01:16:35;;;;;;;27.57;14.47;;;2.50;88.70;;;;;;6249272;22;20035;-81
2021/01/11 01:19:01;;;;;;;28.07;14.37;;;2.60;88.30;;;;;;6275817;22;20441;-81
2021/01/11 01:21:27;;;;;;;27.73;14.67;;;2.50;87.90;;;;;;6276258;22;20434;-82
2021/01/11 01:23:53;;;;;;;29.20;14.53;;;2.60;88.00;;;;;;6277594;22;20069;-82
2021/01/11 01:26:19;;;;;;;30.70;15.17;;;2.50;87.50;;;;;;6250704;22;20046;-82
2021/01/11 01:28:45;;;;;;;24.93;13.67;;;2.50;90.20;;;;;;6277706;22;20490;-82
2021/01/11 01:31:10;;;;;;;28.80;14.50;;;2.60;87.80;;;;;;6277462;22;20500;-82
2021/01/11 01:33:36;;;;;;;32.60;14.97;;;2.50;87.40;;;;;;6278331;22;20039;-82
2021/01/11 01:36:02;;;;;;;31.00;14.90;;;2.50;87.60;;;;;;6278276;22;20003;-82
2021/01/11 01:38:28;;;;;;;28.57;14.33;;;2.40;87.90;;;;;;6278275;22;20418;-82
2021/01/11 01:40:54;;;;;;;28.10;14.30;;;2.50;88.50;;;;;;6250737;22;20031;-82
2021/01/11 01:43:20;;;;;;;31.00;16.03;;;2.40;88.30;;;;;;6250918;22;20006;-82
2021/01/11 01:45:46;;;;;;;32.73;16.53;;;2.40;88.00;;;;;;6278478;22;20019;-82
2021/01/11 01:48:12;;;;;;;32.30;16.40;;;2.40;88.30;;;;;;6279097;22;20024;-82
2021/01/11 01:50:40;;;;;;;29.00;15.13;;;2.40;87.90;;;;;;6278736;22;19996;-82
2021/01/11 01:53:05;;;;;;;31.83;15.63;;;2.40;87.90;;;;;;6278466;22;20041;-82
2021/01/11 01:55:31;;;;;;;30.73;16.37;;;2.40;88.30;;;;;;6278687;22;20023;-82
2021/01/11 01:58:01;;;;;;;33.07;16.00;;;2.40;88.00;;;;;;6279057;22;20368;-82
2021/01/11 02:00:26;;;;;;;32.47;16.20;;;2.40;88.10;;;;;;6251343;22;20500;-82
2021/01/11 02:02:52;;;;;;;34.03;17.30;;;2.40;88.20;;;;;;6251429;22;20003;-82
2021/01/11 02:05:18;;;;;;;30.30;16.20;;;2.40;88.90;;;;;;6279353;22;20000;-82
2021/01/11 02:08:01;;;;;;;33.57;15.73;;;2.40;88.60;;;;;;6278960;22;20126;-82
2021/01/11 02:11:03;;;;;;;32.03;16.87;;;2.40;88.10;;;;;;6278756;22;20121;-82
2021/01/11 02:13:31;;;;;;;30.63;16.13;;;2.40;88.20;;;;;;6143439;22;20017;-83
2021/01/11 02:16:03;;;;;;;33.63;17.13;;;2.40;88.70;;;;;;6279062;22;19999;-82
2021/01/11 02:18:37;;;;;;;32.57;17.97;;;2.40;88.60;;;;;;6279240;22;20384;-82
2021/01/11 02:21:37;;;;;;;32.73;17.57;;;2.40;88.90;;;;;;6278673;22;20004;-82
2021/01/11 02:24:24;;;;;;;37.55;18.27;;;2.40;88.60;;;;;;6275499;22;20003;-82
2021/01/11 02:27:18;;;;;;;38.97;20.37;;;2.40;88.70;;;;;;6275388;22;20075;-82
2021/01/11 02:30:05;;;;;;;43.77;22.97;;;2.40;89.00;;;;;;6274343;22;20625;-81
2021/01/11 02:32:31;;;;;;;45.23;23.63;;;2.20;89.80;;;;;;6275571;22;20426;-82
2021/01/11 02:35:02;;;;;;;49.10;24.47;;;2.20;90.00;;;;;;6275345;22;19995;-83
2021/01/11 02:37:29;;;;;;;44.67;23.47;;;2.20;90.00;;;;;;6275283;22;20367;-82
2021/01/11 02:39:55;;;;;;;50.93;26.53;;;2.20;90.10;;;;;;6274686;22;20334;-81
2021/01/11 02:42:21;;;;;;;42.90;22.40;;;2.20;90.10;;;;;;6275534;22;19999;-82
2021/01/11 02:44:48;;;;;;;54.03;25.43;;;2.20;89.80;;;;;;6275291;22;20000;-82
2021/01/11 02:47:18;;;;;;;46.27;23.63;;;2.20;89.90;;;;;;6275414;22;19996;-82
2021/01/11 02:49:50;;;;;;;48.80;25.50;;;2.20;89.90;;;;;;6247553;22;20004;-82
2021/01/11 02:52:27;;;;;;;47.90;23.53;;;2.30;89.60;;;;;;6274953;22;20152;-82
2021/01/11 02:55:31;;;;;;;48.27;24.30;;;2.20;89.60;;;;;;6248101;22;20319;-82
2021/01/11 02:58:25;;;;;;;48.93;23.30;;;2.20;89.40;;;;;;6242053;22;20000;-82
2021/01/11 03:00:52;;;;;;;46.60;23.47;;;2.20;89.20;;;;;;6272790;22;20000;-82
2021/01/11 03:03:18;;;;;;;46.10;23.53;;;2.20;89.00;;;;;;6275350;22;20004;-82
2021/01/11 03:05:45;;;;;;;46.43;24.10;;;2.20;89.00;;;;;;6248127;22;20004;-82
2021/01/11 03:08:10;;;;;;;46.73;24.30;;;2.20;89.00;;;;;;6275201;22;20385;-82
2021/01/11 03:10:36;;;;;;;43.60;23.50;;;2.20;89.00;;;;;;6274747;22;20008;-82
2021/01/11 03:13:02;;;;;;;43.27;24.03;;;2.10;88.70;;;;;;6274990;22;19995;-81
2021/01/11 03:15:28;;;;;;;47.70;25.37;;;2.10;89.00;;;;;;6276728;22;20030;-81
2021/01/11 03:17:53;;;;;;;49.57;26.03;;;2.10;88.70;;;;;;6277397;22;20022;-82
2021/01/11 03:20:19;;;;;;;51.33;25.80;;;2.00;88.40;;;;;;6276894;22;20002;-81
2021/01/11 03:22:44;;;;;;;49.97;25.50;;;1.90;88.70;;;;;;6250173;22;20389;-81
2021/01/11 03:25:10;;;;;;;50.80;26.13;;;1.90;89.50;;;;;;6276556;22;20004;-81
2021/01/11 03:27:36;;;;;;;50.50;25.20;;;1.90;89.60;;;;;;6276444;22;20049;-81
2021/01/11 03:30:03;;;;;;;49.93;26.03;;;1.90;89.70;;;;;;6276052;22;20034;-81
2021/01/11 03:32:29;;;;;;;48.97;26.23;;;1.90;89.70;;;;;;6277083;22;20000;-81
2021/01/11 03:34:54;;;;;;;51.67;26.83;;;1.90;90.00;;;;;;6249915;22;20015;-81
2021/01/11 03:37:20;;;;;;;50.77;25.80;;;1.90;89.40;;;;;;6277275;22;19995;-82
2021/01/11 03:39:46;;;;;;;52.33;24.70;;;2.00;89.30;;;;;;6276304;22;20006;-81
2021/01/11 03:42:11;;;;;;;45.13;22.87;;;1.90;88.60;;;;;;6276911;22;20000;-81
2021/01/11 03:44:37;;;;;;;43.53;23.03;;;2.00;88.60;;;;;;6277134;22;20003;-81
2021/01/11 03:47:03;;;;;;;41.30;22.47;;;1.90;88.00;;;;;;6276858;22;20368;-81
2021/01/11 03:49:28;;;;;;;42.63;23.13;;;1.90;88.60;;;;;;6276276;22;20007;-81
2021/01/11 03:52:00;;;;;;;42.80;23.57;;;1.80;88.70;;;;;;6249949;22;20031;-81
2021/01/11 03:54:26;;;;;;;41.60;22.73;;;1.90;88.40;;;;;;6276808;22;20494;-81
2021/01/11 03:56:52;;;;;;;38.23;21.33;;;1.80;88.50;;;;;;6277096;22;19996;-81
2021/01/11 03:59:18;;;;;;;44.30;23.53;;;1.80;88.40;;;;;;6248812;22;20027;-82
2021/01/11 04:01:43;;;;;;;43.37;22.77;;;1.80;88.80;;;;;;6249638;22;20003;-81
2021/01/11 04:04:09;;;;;;;44.13;22.90;;;1.80;88.40;;;;;;6276931;22;20431;-81
2021/01/11 04:06:34;;;;;;;44.90;23.50;;;1.70;88.80;;;;;;6276996;22;20320;-82
2021/01/11 04:09:00;;;;;;;42.73;22.37;;;1.80;89.10;;;;;;6276253;22;20011;-82
2021/01/11 04:11:25;;;;;;;43.97;22.63;;;1.80;88.50;;;;;;6276750;22;20008;-81
2021/01/11 04:13:51;;;;;;;36.90;20.93;;;1.90;88.50;;;;;;6276717;22;20030;-81
2021/01/11 04:16:17;;;;;;;38.20;20.70;;;1.80;88.40;;;;;;6249688;22;20062;-82
2021/01/11 04:18:43;;;;;;;36.40;20.30;;;1.80;88.40;;;;;;6276846;22;20000;-81
2021/01/11 04:21:13;;;;;;;35.57;21.17;;;1.70;88.50;;;;;;6248929;22;20003;-82
2021/01/11 04:23:39;;;;;;;;;;;1.70;89.40;;;;;;6277228;22;20006;-81
2021/01/11 04:26:06;;;;;;;38.57;21.07;;;1.80;89.10;;;;;;6276369;22;20079;-82
2021/01/11 04:28:32;;;;;;;41.33;21.83;;;1.80;88.90;;;;;;6276768;22;20018;-82
2021/01/11 04:30:57;;;;;;;38.87;20.87;;;1.80;88.70;;;;;;6276103;22;20004;-82
2021/01/11 04:33:23;;;;;;;37.47;21.47;;;1.80;88.80;;;;;;6276352;22;20026;-82
2021/01/11 04:35:49;;;;;;;34.67;20.17;;;1.80;89.10;;;;;;6249406;22;20045;-82
2021/01/11 04:38:14;;;;;;;37.80;22.00;;;1.80;88.60;;;;;;6276501;22;20074;-82
2021/01/11 04:40:40;;;;;;;44.17;22.60;;;1.80;89.10;;;;;;6275804;22;20073;-82
2021/01/11 04:43:14;;;;;;;40.13;22.07;;;1.80;89.20;;;;;;6276671;22;20388;-82
2021/01/11 04:45:39;;;;;;;38.17;20.83;;;1.80;89.50;;;;;;6276307;22;20350;-82
2021/01/11 04:48:06;;;;;;;43.37;21.97;;;1.90;90.00;;;;;;6276714;22;20000;-82
2021/01/11 04:50:31;;;;;;;41.73;22.70;;;1.90;90.10;;;;;;6275769;22;20503;-81
2021/01/11 04:52:57;;;;;;;40.90;23.33;;;1.90;90.10;;;;;;6276594;22;20075;-82
2021/01/11 04:55:23;;;;;;;42.40;22.80;;;1.90;90.00;;;;;;6276670;22;20082;-82
2021/01/11 04:57:56;;;;;;;41.63;22.80;;;2.00;90.20;;;;;;6276490;22;19996;-82
2021/01/11 05:00:27;;;;;;;40.53;22.20;;;2.00;90.00;;;;;;6276212;22;19999;-82
2021/01/11 05:03:11;;;;;;;43.80;23.03;;;2.00;89.80;;;;;;6249835;22;20301;-82
2021/01/11 05:05:45;;;;;;;43.53;23.77;;;2.00;90.00;;;;;;6276282;22;20006;-82
2021/01/11 05:08:10;;;;;;;43.13;22.73;;;2.00;89.80;;;;;;6276603;22;20049;-81
2021/01/11 05:10:39;;;;;;;42.57;23.50;;;2.10;89.60;;;;;;6275742;22;20008;-82
2021/01/11 05:13:09;;;;;;;41.13;23.37;;;2.10;89.60;;;;;;6276498;22;20011;-82
2021/01/11 05:15:36;;;;;;;42.90;22.53;;;2.10;90.00;;;;;;6276552;22;19995;-82
2021/01/11 05:18:16;;;;;;;42.57;23.03;;;2.10;89.60;;;;;;6249287;22;20439;-82
2021/01/11 05:20:41;;;;;;;39.75;21.58;;;2.00;89.90;;;;;;6275687;22;19996;-82
2021/01/11 05:23:09;;;;;;;42.13;23.20;;;2.10;90.00;;;;;;6276268;22;20079;-82
2021/01/11 05:25:36;;;;;;;44.30;22.00;;;2.10;90.00;;;;;;6276382;22;20008;-81
2021/01/11 05:30:41;;;;;;;41.20;23.00;;;2.00;90.00;;;;;;6303160;22;20027;-86
2021/01/11 05:33:09;;;;;;;39.63;22.40;;;2.10;90.10;;;;;;6279699;22;20007;-86
2021/01/11 05:35:36;;;;;;;44.30;23.60;;;2.10;89.90;;;;;;6307093;22;19999;-86
2021/01/11 05:38:17;;;;;;;43.37;23.47;;;2.10;89.90;;;;;;6307431;22;20005;-86
2021/01/11 05:40:43;;;;;;;42.13;23.23;;;2.20;89.90;;;;;;6249098;22;20053;-86
2021/01/11 05:43:17;;;;;;;44.87;23.70;;;2.20;89.50;;;;;;6250384;22;20004;-86
2021/01/11 05:45:43;;;;;;;46.97;24.53;;;2.20;90.10;;;;;;6257507;22;20003;-86
2021/01/11 05:48:10;;;;;;;45.10;25.07;;;2.20;89.60;;;;;;6291308;22;19999;-86
2021/01/11 05:50:41;;;;;;;47.63;24.13;;;2.20;89.60;;;;;;6288038;22;20050;-86
2021/01/11 05:53:26;;;;;;;47.33;24.50;;;2.20;89.60;;;;;;6253199;22;20393;-87
2021/01/11 05:55:54;;;;;;;51.87;26.13;;;2.20;90.00;;;;;;6257584;22;20000;-87
2021/01/11 05:58:21;;;;;;;46.57;24.67;;;2.10;90.00;;;;;;6292820;22;20007;-86
2021/01/11 06:00:47;;;;;;;45.03;23.43;;;2.20;90.00;;;;;;6257858;22;20000;-86
2021/01/11 06:03:14;;;;;;;50.77;25.33;;;2.20;90.10;;;;;;6257734;22;20000;-86
2021/01/11 06:05:40;;;;;;;52.30;26.20;;;2.20;90.40;;;;;;6281249;22;20000;-86
2021/01/11 06:08:10;;;;;;;50.07;26.07;;;2.20;90.30;;;;;;6276536;22;20004;-86
2021/01/11 06:10:36;;;;;;;54.55;27.38;;;2.10;90.40;;;;;;6248755;22;20004;-86
2021/01/11 06:13:07;;;;;;;55.17;28.07;;;2.10;90.50;;;;;;6276492;22;20007;-86
2021/01/11 06:15:33;;;;;;;53.30;26.07;;;2.10;90.50;;;;;;6249421;22;20004;-87
2021/01/11 06:17:59;;;;;;;60.53;29.10;;;2.10;90.70;;;;;;6276618;22;20003;-86
2021/01/11 06:20:26;;;;;;;55.03;27.83;;;2.10;90.90;;;;;;6275637;22;19999;-86
2021/01/11 06:22:52;;;;;;;56.83;28.20;;;2.10;90.80;;;;;;6249716;22;20000;-87
2021/01/11 06:25:17;;;;;;;53.70;27.70;;;2.10;90.90;;;;;;6250093;22;20004;-87
2021/01/11 06:28:16;;;;;;;57.90;29.27;;;2.10;90.80;;;;;;6252703;22;20008;-87
2021/01/11 06:30:46;;;;;;;60.25;28.67;;;2.20;90.70;;;;;;6249090;22;20385;-87
2021/01/11 06:33:17;;;;;;;58.40;28.00;;;2.10;90.80;;;;;;6248954;22;20004;-86
2021/01/11 06:35:42;;;;;;;65.83;29.40;;;2.10;91.00;;;;;;6249845;22;20057;-87
2021/01/11 06:38:22;;;;;;;62.77;29.90;;;2.10;90.80;;;;;;6249745;22;19996;-88
2021/01/11 06:40:53;;;;;;;53.60;27.98;;;2.10;90.80;;;;;;6275768;22;19996;-88
2021/01/11 06:43:21;;;;;;;62.37;28.97;;;2.20;90.80;;;;;;6249138;22;20330;-89
2021/01/11 06:45:47;;;;;;;58.77;27.90;;;2.20;90.80;;;;;;6276923;22;20030;-87
2021/01/11 06:48:32;;;;;;;55.47;27.80;;;2.20;90.70;;;;;;6249384;22;20014;-87
2021/01/11 06:51:10;;;;;;;54.07;27.63;;;2.20;90.60;;;;;;6248896;22;20014;-86
2021/01/11 06:53:37;;;;;;;52.08;26.85;;;2.20;90.40;;;;;;6249534;22;20007;-88
2021/01/11 06:56:10;;;;;;;51.70;26.80;;;2.20;90.70;;;;;;6276363;22;20362;-88
2021/01/11 06:58:40;;;;;;;56.13;27.13;;;2.20;90.40;;;;;;6249329;22;20032;-86
2021/01/11 07:01:08;;;;;;;52.40;26.20;;;2.20;90.50;;;;;;6249000;22;20008;-86
2021/01/11 07:03:47;;;;;;;48.80;25.37;;;2.10;90.40;;;;;;6249346;22;20082;-86
2021/01/11 07:06:33;;;;;;;45.55;21.05;;;2.10;90.50;;;;;;6276189;22;20006;-86
2021/01/11 07:09:19;;;;;;;49.93;25.87;;;2.20;90.40;;;;;;6248406;22;20065;-87
2021/01/11 07:11:46;;;;;;;46.27;24.27;;;2.20;90.40;;;;;;6256654;22;20137;-88
2021/01/11 07:14:14;;;;;;;49.70;25.50;;;2.20;90.20;;;;;;6258812;22;20003;-87
2021/01/11 07:16:49;;;;;;;47.03;25.43;;;2.20;90.10;;;;;;6258307;22;19999;-87
2021/01/11 07:19:20;;;;;;;45.47;25.27;;;2.30;90.20;;;;;;6284809;22;20023;-85
2021/01/11 07:21:47;;;;;;;46.03;24.90;;;2.30;90.10;;;;;;6258830;22;20038;-85
2021/01/11 07:24:13;;;;;;;45.20;23.90;;;2.20;90.10;;;;;;6286963;22;20000;-85
2021/01/11 07:26:40;;;;;;;43.10;23.70;;;2.20;90.10;;;;;;6256358;22;20031;-87
2021/01/11 07:29:17;;;;;;;44.00;23.73;;;2.30;90.70;;;;;;6257560;22;20012;-86
2021/01/11 07:31:45;;;;;;;48.27;24.53;;;2.30;90.20;;;;;;6258888;22;20007;-87
2021/01/11 07:34:18;;;;;;;48.87;24.37;;;2.30;90.40;;;;;;6258639;22;20003;-87
2021/01/11 07:36:46;;;;;;;46.40;23.60;;;2.20;90.40;;;;;;6258068;22;20012;-87
2021/01/11 07:39:15;;;;;;;45.87;23.23;;;2.20;90.50;;;;;;6232161;22;20006;-86
2021/01/11 07:41:49;;;;;;;46.75;24.98;;;2.20;90.80;;;;;;6258484;22;20000;-86
2021/01/11 07:44:23;;;;;;;50.90;23.30;;;2.30;90.70;;;;;;6258527;22;20011;-86
2021/01/11 07:46:59;;;;;;;49.40;25.03;;;2.20;90.70;;;;;;6263370;22;20007;-86
2021/01/11 07:49:26;;;;;;;42.50;22.73;;;2.20;90.80;;;;;;6262450;22;20003;-87
2021/01/11 07:51:52;;;;;;;44.20;24.53;;;2.20;90.90;;;;;;6256860;22;20091;-85
2021/01/11 07:54:20;;;;;;;47.77;24.03;;;2.20;90.90;;;;;;6261929;22;20019;-87
2021/01/11 07:56:49;;;;;;;42.80;22.70;;;2.20;90.70;;;;;;6253709;22;20007;-87
2021/01/11 07:59:15;;;;;;;43.90;23.03;;;2.30;90.50;;;;;;6276633;22;20075;-86
2021/01/11 08:01:43;;;;;;;39.87;22.70;;;2.20;90.60;;;;;;6281345;22;20070;-86
2021/01/11 08:04:10;;;;;;;45.37;22.90;;;2.20;90.70;;;;;;6261189;22;20003;-87
2021/01/11 08:06:48;;;;;;;39.03;22.10;;;2.30;90.70;;;;;;6259732;22;20457;-87
2021/01/11 08:09:14;;;;;;;40.47;21.27;;;2.30;90.70;;;;;;6287671;22;20052;-88
2021/01/11 08:11:40;;;;;;;39.87;21.30;;;2.30;90.30;;;;;;6259871;22;20004;-87
2021/01/11 08:14:07;;;;;;;40.03;21.10;;;2.20;90.40;;;;;;6260105;22;20007;-87
2021/01/11 08:16:35;;;;;;;37.00;19.90;;;2.30;90.40;;;;;;6287911;22;20326;-87
2021/01/11 08:19:08;;;;;;;39.73;20.60;;;2.20;90.60;;;;;;6260521;22;20556;-87
2021/01/11 08:21:34;;;;;;;36.93;18.87;;;2.20;90.50;;;;;;6260144;22;20003;-87
2021/01/11 08:24:06;;;;;;;38.77;19.53;;;2.20;90.40;;;;;;6260660;22;20023;-87
2021/01/11 08:26:46;;;;;;;35.63;19.47;;;2.20;90.30;;;;;;6286637;22;20019;-88
2021/01/11 08:29:13;;;;;;;38.13;20.17;;;2.10;90.30;;;;;;6259992;22;20095;-88
2021/01/11 08:31:39;;;;;;;37.07;18.80;;;2.20;90.40;;;;;;6287172;22;20000;-87
2021/01/11 08:34:07;;;;;;;39.00;19.70;;;2.10;90.20;;;;;;6286864;22;20050;-87
2021/01/11 08:36:32;;;;;;;38.57;19.10;;;2.10;90.50;;;;;;6261151;22;20008;-86
2021/01/11 08:39:08;;;;;;;36.43;18.93;;;2.20;90.50;;;;;;6285801;22;20012;-87
2021/01/11 08:41:36;;;;;;;37.77;19.63;;;2.20;90.60;;;;;;6277941;22;20461;-87
2021/01/11 08:44:03;;;;;;;38.23;19.33;;;2.20;90.60;;;;;;6250524;22;20057;-88
2021/01/11 08:46:54;;;;;;;38.83;20.20;;;2.20;90.50;;;;;;6276618;22;20102;-88
2021/01/11 08:49:20;;;;;;;38.33;19.53;;;2.20;90.60;;;;;;6276043;22;20330;-88
2021/01/11 08:51:47;;;;;;;39.20;20.27;;;2.10;90.80;;;;;;6277092;22;20007;-88
2021/01/11 08:54:29;;;;;;;35.97;19.43;;;2.20;90.70;;;;;;6250007;22;20000;-88
2021/01/11 08:56:56;;;;;;;41.03;20.10;;;2.10;90.80;;;;;;6249510;22;20498;-87
2021/01/11 08:59:23;;;;;;;39.67;20.03;;;2.10;90.70;;;;;;6275808;22;19995;-87
2021/01/11 09:01:50;;;;;;;40.33;20.70;;;2.10;90.80;;;;;;6249410;22;20004;-87
2021/01/11 09:04:31;;;;;;;37.57;19.73;;;2.10;90.90;;;;;;6277294;22;20006;-87
2021/01/11 09:07:04;;;;;;;38.27;20.93;;;2.10;91.00;;;;;;6276428;22;20008;-87
2021/01/11 09:09:31;;;;;;;40.43;20.57;;;2.10;91.00;;;;;;6248666;22;20000;-87
2021/01/11 09:12:08;;;;;;;40.50;20.17;;;2.10;91.10;;;;;;6249090;22;20009;-87
2021/01/11 09:14:35;;;;;;;38.60;19.27;;;2.10;91.00;;;;;;6249368;22;20003;-87
2021/01/11 09:17:05;;;;;;;38.07;19.77;;;2.10;90.90;;;;;;6251062;22;20058;-86
2021/01/11 09:19:34;;;;;;;39.20;18.90;;;2.10;90.40;;;;;;6249108;22;20084;-87
2021/01/11 09:22:23;;;;;;;39.67;19.25;;;2.10;90.40;;;;;;6250458;22;19995;-87
2021/01/11 09:24:48;;;;;;;35.08;17.55;;;2.20;90.40;;;;;;6250021;22;19999;-87
2021/01/11 09:27:14;;;;;;;34.83;17.97;;;2.20;90.20;;;;;;6276786;22;20023;-88
2021/01/11 09:29:39;;;;;;;37.03;17.93;;;2.20;90.10;;;;;;6249670;22;20011;-88
2021/01/11 09:32:06;;;;;;;34.97;17.53;;;2.20;90.10;;;;;;6250596;22;19999;-88
2021/01/11 09:34:31;;;;;;;34.83;17.30;;;2.20;90.00;;;;;;6249959;22;20015;-88
2021/01/11 09:36:57;;;;;;;37.03;17.33;;;2.30;90.30;;;;;;6250402;22;20000;-87
2021/01/11 09:39:23;;;;;;;34.63;17.10;;;2.20;89.90;;;;;;6249788;22;20040;-87
2021/01/11 09:41:51;;;;;;;34.50;16.33;;;2.20;90.10;;;;;;6250096;22;20016;-87
2021/01/11 09:44:17;;;;;;;31.70;15.83;;;2.10;89.60;;;;;;6276924;22;20437;-87
2021/01/11 09:46:51;;;;;;;33.77;16.43;;;2.20;89.90;;;;;;6277776;22;20014;-87
2021/01/11 09:49:17;;;;;;;31.10;15.67;;;2.20;89.50;;;;;;6277396;22;20003;-87
2021/01/11 09:51:43;;;;;;;28.10;14.10;;;2.20;89.50;;;;;;6249636;22;20442;-88
2021/01/11 09:54:09;;;;;;;32.80;15.50;;;2.20;89.50;;;;;;6250000;22;20425;-88
2021/01/11 09:56:36;;;;;;;33.60;16.00;;;2.20;89.70;;;;;;6278018;22;19995;-88
2021/01/11 09:59:03;;;;;;;30.53;15.43;;;2.30;89.40;;;;;;6250944;22;20063;-87
2021/01/11 10:01:48;;;;;;;31.23;15.10;;;2.30;89.40;;;;;;6250817;22;20377;-87
2021/01/11 10:04:16;;;;;;;28.83;14.40;;;2.30;89.40;;;;;;6261135;22;20004;-87
2021/01/11 10:06:43;;;;;;;32.30;15.13;;;2.30;89.50;;;;;;6287319;22;20006;-88
2021/01/11 10:09:11;;;;;;;32.63;16.43;;;2.30;89.70;;;;;;6287930;22;20007;-87
2021/01/11 10:11:37;;;;;;;28.33;13.97;;;2.30;89.80;;;;;;6288721;22;20011;-86
2021/01/11 10:14:04;;;;;;;31.23;15.43;;;2.30;90.00;;;;;;6262116;22;20011;-87
2021/01/11 10:16:29;;;;;;;30.50;14.73;;;2.30;90.10;;;;;;6262078;22;20050;-86
2021/01/11 10:18:55;;;;;;;28.07;14.27;;;2.40;90.10;;;;;;6261946;22;20081;-86
2021/01/11 10:21:21;;;;;;;29.43;14.87;;;2.40;90.10;;;;;;6262481;22;20422;-87
2021/01/11 10:23:47;;;;;;;26.53;13.23;;;2.40;90.20;;;;;;6291306;22;20061;-87
2021/01/11 10:26:21;;;;;;;32.50;14.93;;;2.40;90.30;;;;;;6259421;22;20003;-87
2021/01/11 10:28:48;;;;;;;31.53;14.47;;;2.40;90.70;;;;;;6259510;22;20309;-87
2021/01/11 10:31:15;;;;;;;29.93;13.93;;;2.50;90.50;;;;;;6286287;22;20000;-86
2021/01/11 10:33:41;;;;;;;27.83;13.93;;;2.40;90.70;;;;;;6260023;22;20103;-87
2021/01/11 10:36:07;;;;;;;26.87;13.40;;;2.40;90.70;;;;;;6258603;22;20027;-88
2021/01/11 10:38:33;;;;;;;23.70;13.17;;;2.40;90.70;;;;;;6256274;22;20010;-87
2021/01/11 10:40:58;;;;;;;25.73;13.07;;;2.40;90.90;;;;;;6256708;22;20000;-87
2021/01/11 10:43:25;;;;;;;25.50;13.13;;;2.40;90.60;;;;;;6259295;22;20035;-87
2021/01/11 10:45:51;;;;;;;30.43;13.90;;;2.50;90.70;;;;;;6249970;22;20008;-87
2021/01/11 10:48:16;;;;;;;26.20;13.47;;;2.50;90.50;;;;;;6276215;22;20320;-87
2021/01/11 10:50:42;;;;;;;25.27;13.87;;;2.50;90.70;;;;;;6276322;22;20000;-87
2021/01/11 10:53:07;;;;;;;26.60;13.27;;;2.50;90.50;;;;;;6248859;22;20315;-87
2021/01/11 10:55:33;;;;;;;26.73;13.60;;;2.50;90.50;;;;;;6249130;22;20004;-87
2021/01/11 10:57:59;;;;;;;26.73;13.03;;;2.50;90.50;;;;;;6249176;22;20307;-87
2021/01/11 11:00:25;;;;;;;25.13;14.00;;;2.50;90.60;;;;;;6249179;22;20000;-87
2021/01/11 11:02:50;;;;;;;27.13;13.40;;;2.40;90.60;;;;;;6249190;22;20061;-87
2021/01/11 11:05:16;;;;;;;25.57;12.27;;;2.50;90.70;;;;;;6249310;22;20094;-87
2021/01/11 11:07:43;;;;;;;24.97;12.50;;;2.50;90.70;;;;;;6249576;22;20018;-88
2021/01/11 11:10:09;;;;;;;24.53;12.67;;;2.50;90.50;;;;;;6276891;22;20062;-87
2021/01/11 11:12:35;;;;;;;23.17;12.30;;;2.50;90.50;;;;;;6276389;22;20003;-87
2021/01/11 11:15:02;;;;;;;23.37;12.53;;;2.50;90.50;;;;;;6276252;22;19999;-87
2021/01/11 11:17:31;;;;;;;23.73;12.70;;;2.50;90.60;;;;;;6276433;22;19996;-88
2021/01/11 11:19:58;;;;;;;23.27;12.27;;;2.50;90.60;;;;;;6248595;22;20118;-87
2021/01/11 11:22:24;;;;;;;25.53;11.90;;;2.50;90.40;;;;;;6248704;22;20000;-87
2021/01/11 11:24:49;;;;;;;23.87;12.53;;;2.60;90.50;;;;;;6249146;22;20026;-87
2021/01/11 11:27:16;;;;;;;22.53;11.70;;;2.60;90.50;;;;;;6276186;22;20415;-86
2021/01/11 11:29:41;;;;;;;24.53;12.07;;;2.60;90.50;;;;;;6248819;22;20012;-87
2021/01/11 11:32:07;;;;;;;19.77;11.37;;;2.60;90.50;;;;;;6248263;22;19996;-87
2021/01/11 11:34:32;;;;;;;22.00;11.27;;;2.60;90.40;;;;;;6248798;22;20039;-87
2021/01/11 11:36:58;;;;;;;21.80;11.60;;;2.60;90.20;;;;;;6250040;22;20006;-87
2021/01/11 11:39:24;;;;;;;21.60;11.23;;;2.70;90.30;;;;;;6250261;22;20010;-87
2021/01/11 11:41:56;;;;;;;24.20;12.10;;;2.70;90.20;;;;;;6277965;22;20334;-87
2021/01/11 11:44:21;;;;;;;21.37;11.53;;;2.70;90.20;;;;;;6250940;22;20012;-87
2021/01/11 11:46:47;;;;;;;21.73;11.10;;;2.70;90.10;;;;;;6250979;22;20499;-87
2021/01/11 11:49:12;;;;;;;20.87;11.17;;;2.70;90.10;;;;;;6277353;22;20445;-87
2021/01/11 11:51:43;;;;;;;18.87;10.40;;;2.70;90.20;;;;;;6250886;22;20065;-87
2021/01/11 11:54:08;;;;;;;21.00;10.50;;;2.70;90.10;;;;;;6252073;22;20014;-86
2021/01/11 11:56:37;;;;;;;20.10;10.77;;;2.80;90.20;;;;;;6250796;22;20420;-87
2021/01/11 11:59:05;;;;;;;21.43;11.40;;;2.80;90.10;;;;;;6250014;22;20007;-87
2021/01/11 12:01:41;;;;;;;21.00;10.77;;;2.80;90.10;;;;;;6250328;22;20034;-87
2021/01/11 12:04:08;;;;;;;20.97;10.37;;;2.80;90.00;;;;;;6251060;22;20008;-87
2021/01/11 12:06:44;;;;;;;20.70;10.63;;;2.90;89.90;;;;;;6250639;22;20004;-87
2021/01/11 12:09:11;;;;;;;19.37;10.03;;;2.90;89.60;;;;;;6250224;22;20011;-87
2021/01/11 12:11:41;;;;;;;17.87;9.20;;;2.90;89.30;;;;;;6257431;22;20003;-86
2021/01/11 12:14:07;;;;;;;17.70;9.63;;;2.90;89.20;;;;;;6253747;22;20094;-85
2021/01/11 12:16:32;;;;;;;17.63;10.10;;;2.90;89.30;;;;;;6253810;22;20083;-87
2021/01/11 12:18:59;;;;;;;19.10;10.23;;;2.90;89.20;;;;;;6284924;22;19996;-87
2021/01/11 12:21:28;;;;;;;17.07;9.70;;;2.90;89.10;;;;;;6283567;22;19998;-87
2021/01/11 12:23:54;;;;;;;19.93;10.67;;;2.90;88.90;;;;;;6257988;22;20004;-87
2021/01/11 12:26:20;;;;;;;19.60;9.47;;;2.90;88.80;;;;;;6257995;22;20410;-87
2021/01/11 12:28:45;;;;;;;17.80;9.93;;;2.90;89.20;;;;;;6257253;22;20016;-87
2021/01/11 12:31:11;;;;;;;18.50;9.20;;;2.90;89.40;;;;;;6254205;22;20003;-87
2021/01/11 12:33:37;;;;;;;19.43;9.13;;;2.90;89.10;;;;;;6260794;22;20027;-86
2021/01/11 12:36:02;;;;;;;20.80;9.83;;;2.90;89.10;;;;;;6274396;22;20091;-86
2021/01/11 12:38:28;;;;;;;16.63;9.10;;;2.90;89.20;;;;;;6267175;22;20000;-86
2021/01/11 12:40:54;;;;;;;15.97;8.97;;;3.00;89.00;;;;;;6272977;22;20025;-86
2021/01/11 12:43:19;;;;;;;20.60;9.30;;;3.00;89.00;;;;;;6275645;22;20018;-86
2021/01/11 12:45:45;;;;;;;17.73;9.47;;;3.00;88.30;;;;;;6274467;22;20008;-86
2021/01/11 12:48:11;;;;;;;19.07;9.73;;;3.00;88.60;;;;;;6300432;22;20026;-85